Terminal Aerodrome Forecast
Issued by NWS

Home | Current Version | Previous Version | Text Only | Print | Product List | Glossary On
Versions: 1 2 3 4 5 6 7 8 9 10 11 12 13 14 15 16 17 18 19 20
383
FTUS45 KABQ 231353 AAA
TAFTCC
TAF AMD
KTCC 231353Z 2314/2412 20015KT P6SM SCT015
      TEMPO 2314/2317 20015G25KT
     FM231700 22018G30KT P6SM SKC
     FM232100 24034G48KT 5SM BLDU SCT025
     FM240200 25024G34KT P6SM SKC
     FM240900 27022G32KT P6SM FEW120=

USA.gov is the U.S. government's official web portal to all federal, state and local government web resources and services.